Time;durP1;ratioP1;P1;durP2;ratioP2;P2;SDS_P1;SDS_P2;PMS_P1;PMS_P2;Temp;Humidity;BMP_temperature;BMP_pressure;BME280_temperature;BME280_humidity;BME280_pressure;Samples;Min_cycle;Max_cycle;Signal;HPM_P1;HPM_P2
2022/08/02 00:02:04;;;;;;;0.20;0.20;;;;;;;14.70;77.52;100404.31;5103752;28;20085;-62
2022/08/02 00:04:30;;;;;;;1.75;1.65;;;;;;;14.67;77.99;100408.75;5103456;28;20031;-62
2022/08/02 00:06:56;;;;;;;1.77;1.75;;;;;;;14.69;78.03;100406.97;5103476;28;20035;-62
2022/08/02 00:09:21;;;;;;;0.32;0.32;;;;;;;14.66;77.92;100407.06;5103357;28;20024;-62
2022/08/02 00:11:47;;;;;;;0.20;0.20;;;;;;;14.60;77.88;100402.88;5103303;28;20024;-62
2022/08/02 00:14:12;;;;;;;1.42;1.42;;;;;;;14.61;78.16;100421.09;5103376;28;20031;-62
2022/08/02 00:16:37;;;;;;;19.17;2.65;;;;;;;14.56;78.69;100417.75;5103233;28;20065;-61
2022/08/02 00:19:03;;;;;;;0.30;0.30;;;;;;;14.56;78.96;100422.97;5085415;28;20067;-62
2022/08/02 00:21:29;;;;;;;3.40;2.05;;;;;;;14.52;79.25;100413.47;5103283;28;20030;-61
2022/08/02 00:23:54;;;;;;;0.30;0.30;;;;;;;14.55;79.23;100418.66;5103254;28;20024;-61
2022/08/02 00:26:19;;;;;;;0.20;0.20;;;;;;;14.55;80.00;100418.66;5084797;28;20046;-61
2022/08/02 00:28:45;;;;;;;0.40;0.40;;;;;;;14.58;80.21;100415.09;5103427;28;20028;-61
2022/08/02 00:31:10;;;;;;;0.20;0.20;;;;;;;14.60;80.64;100418.53;5103220;28;20031;-61
2022/08/02 00:33:35;;;;;;;0.20;0.20;;;;;;;14.62;80.43;100422.81;5103363;28;20024;-61
2022/08/02 00:36:01;;;;;;;0.30;0.30;;;;;;;14.64;80.94;100420.16;5103273;28;20050;-61
2022/08/02 00:38:26;;;;;;;0.50;0.47;;;;;;;14.68;80.51;100416.56;5103314;28;20054;-61
2022/08/02 00:40:53;;;;;;;0.20;0.20;;;;;;;14.64;80.07;100404.50;5102862;28;20028;-61
2022/08/02 00:43:18;;;;;;;0.30;0.30;;;;;;;14.72;80.05;100405.16;5103240;28;20058;-61
2022/08/02 00:45:44;;;;;;;0.30;0.30;;;;;;;14.77;79.52;100405.03;5103222;28;20028;-61
2022/08/02 00:48:11;;;;;;;0.20;0.20;;;;;;;14.77;79.44;100414.63;5103167;28;20016;-61
2022/08/02 00:50:38;;;;;;;0.20;0.20;;;;;;;14.73;79.65;100408.59;5103111;28;20023;-61
2022/08/02 00:53:04;;;;;;;0.20;0.20;;;;;;;14.75;79.32;100406.81;5103124;28;20024;-61
2022/08/02 00:55:31;;;;;;;0.20;0.20;;;;;;;14.72;79.14;100412.13;5106985;28;20063;-61
2022/08/02 00:57:57;;;;;;;0.75;0.75;;;;;;;14.67;79.19;100416.59;5106823;28;20039;-62
2022/08/02 01:00:22;;;;;;;2.75;1.55;;;;;;;14.65;79.54;100421.88;5088649;28;20012;-61
2022/08/02 01:02:49;;;;;;;1.52;1.42;;;;;;;14.63;79.61;100424.53;5088659;28;20020;-61
2022/08/02 01:05:14;;;;;;;1.30;1.30;;;;;;;14.61;79.56;100421.09;5106974;28;20020;-61
2022/08/02 01:07:40;;;;;;;1.63;1.58;;;;;;;14.60;79.78;100424.59;5106748;28;20372;-61
2022/08/02 01:10:06;;;;;;;0.20;0.20;;;;;;;14.63;79.95;100424.53;5106728;28;20028;-62
2022/08/02 01:12:31;;;;;;;0.30;0.30;;;;;;;14.65;79.69;100434.09;5106674;28;20356;-62
2022/08/02 01:15:03;;;;;;;3.50;1.30;;;;;;;14.65;79.40;100421.88;5106752;28;20058;-61
2022/08/02 01:17:50;;;;;;;0.30;0.30;;;;;;;14.63;79.49;100419.28;5088113;28;20032;-61
2022/08/02 01:20:40;;;;;;;0.75;0.75;;;;;;;14.66;79.18;100420.13;5106547;28;20016;-62
2022/08/02 01:23:11;;;;;;;0.20;0.20;;;;;;;14.65;78.62;100423.66;5106507;28;20039;-62
2022/08/02 01:25:36;;;;;;;0.30;0.30;;;;;;;14.63;78.69;100426.28;5106391;28;20046;-62
2022/08/02 01:28:29;;;;;;;0.20;0.20;;;;;;;14.63;78.91;100432.34;5106325;28;20071;-61
2022/08/02 01:31:00;;;;;;;0.22;0.22;;;;;;;14.63;78.64;100429.75;5106503;28;20035;-62
2022/08/02 01:33:34;;;;;;;0.28;0.28;;;;;;;14.62;78.71;100433.25;5106477;28;20034;-61
2022/08/02 01:36:01;;;;;;;0.30;0.30;;;;;;;14.69;78.65;100433.09;5106351;28;20107;-62
2022/08/02 01:38:32;;;;;;;0.30;0.30;;;;;;;14.72;78.41;100428.66;5106164;28;20032;-61
2022/08/02 01:41:00;;;;;;;0.30;0.30;;;;;;;14.76;78.19;100426.81;5105903;28;20020;-62
2022/08/02 01:43:29;;;;;;;0.30;0.30;;;;;;;14.78;77.79;100437.22;5106259;28;20035;-62
2022/08/02 01:45:56;;;;;;;0.45;0.45;;;;;;;14.73;77.86;100429.50;5106173;28;20023;-62
2022/08/02 01:48:25;;;;;;;0.20;0.20;;;;;;;14.75;77.65;100427.72;5106258;28;20020;-62
2022/08/02 01:50:52;;;;;;;0.30;0.30;;;;;;;14.79;77.16;100426.75;5106112;28;20031;-62
2022/08/02 01:53:19;;;;;;;0.40;0.40;;;;;;;14.83;77.22;100438.88;5106056;28;20082;-61
2022/08/02 01:55:47;;;;;;;0.32;0.32;;;;;;;14.79;77.34;100429.38;5105852;28;20429;-61
2022/08/02 01:58:17;;;;;;;0.30;0.30;;;;;;;14.77;77.46;100440.75;5106028;28;20044;-61
2022/08/02 02:00:45;;;;;;;0.30;0.30;;;;;;;14.71;77.58;100440.00;5106013;28;20034;-62
2022/08/02 02:03:18;;;;;;;1.15;1.15;;;;;;;14.69;77.62;100441.81;5105566;28;20060;-61
2022/08/02 02:05:45;;;;;;;0.40;0.40;;;;;;;14.68;77.54;100441.84;5104934;28;20028;-61
2022/08/02 02:08:13;;;;;;;0.28;0.28;;;;;;;14.67;77.66;100437.50;5087293;28;20083;-61
2022/08/02 02:10:39;;;;;;;0.25;0.25;;;;;;;14.68;77.89;100447.91;5105561;28;20426;-61
2022/08/02 02:13:12;;;;;;;0.20;0.20;;;;;;;14.71;77.73;100444.38;5105583;28;20024;-61
2022/08/02 02:15:45;;;;;;;0.30;0.30;;;;;;;14.72;77.29;100446.97;5105560;28;20383;-61
2022/08/02 02:18:17;;;;;;;0.30;0.30;;;;;;;14.71;77.13;100445.22;5105452;28;20082;-61
2022/08/02 02:20:42;;;;;;;;;;;;;;;14.73;77.37;100447.81;5105981;28;20035;-61
2022/08/02 02:23:08;;;;;;;0.30;0.30;;;;;;;14.64;77.06;100446.28;5105393;28;19943;-61
2022/08/02 02:25:35;;;;;;;0.30;0.30;;;;;;;14.61;76.87;100449.84;5105308;28;20054;-61
2022/08/02 02:28:05;;;;;;;0.20;0.20;;;;;;;14.53;76.73;100436.13;5105197;28;20020;-61
2022/08/02 02:30:32;;;;;;;0.30;0.30;;;;;;;14.56;76.51;100441.25;5086948;28;20050;-61
2022/08/02 02:33:00;;;;;;;0.30;0.30;;;;;;;14.53;76.29;100438.72;5105356;28;20024;-61
2022/08/02 02:35:32;;;;;;;0.20;0.20;;;;;;;14.46;76.59;100432.78;5105039;28;20035;-62
2022/08/02 02:38:00;;;;;;;;;;;;;;;14.49;76.68;100424.00;5105507;28;20101;-61
2022/08/02 02:40:27;;;;;;;0.25;0.25;;;;;;;14.46;76.61;100426.69;5104921;28;19908;-61
2022/08/02 02:42:55;;;;;;;0.20;0.20;;;;;;;14.45;76.37;100431.06;5086715;28;20028;-61
2022/08/02 02:45:21;;;;;;;0.30;0.30;;;;;;;14.40;76.71;100426.84;5086980;28;20023;-61
2022/08/02 02:47:48;;;;;;;0.20;0.20;;;;;;;14.34;76.88;100428.72;5104972;28;20535;-61
2022/08/02 02:50:20;;;;;;;1.15;1.05;;;;;;;14.33;77.15;100416.53;5104903;28;20032;-61
2022/08/02 02:52:46;;;;;;;;;;;;;;;14.38;77.40;100425.13;5105422;28;20020;-61
2022/08/02 02:55:12;;;;;;;0.20;0.20;;;;;;;14.32;77.07;100413.97;5104755;28;19947;-61
2022/08/02 02:57:39;;;;;;;0.20;0.20;;;;;;;14.35;76.94;100416.50;5104592;28;20343;-61
2022/08/02 03:00:08;;;;;;;0.20;0.20;;;;;;;14.31;76.99;100428.81;5104779;28;20057;-61
2022/08/02 03:02:36;;;;;;;0.30;0.30;;;;;;;14.35;76.99;100425.22;5104716;28;20058;-61
2022/08/02 03:05:02;;;;;;;1.55;1.48;;;;;;;14.39;76.68;100428.63;5104525;28;20036;-61
2022/08/02 03:07:28;;;;;;;0.30;0.30;;;;;;;14.41;76.19;100428.56;5104622;28;20021;-61
2022/08/02 03:09:54;;;;;;;0.73;0.73;;;;;;;14.38;75.83;100429.50;5104489;28;20028;-61
2022/08/02 03:12:19;;;;;;;0.20;0.20;;;;;;;14.35;75.71;100430.44;5104401;28;20035;-61
2022/08/02 03:14:45;;;;;;;0.20;0.20;;;;;;;14.36;75.64;100426.91;5104589;28;20020;-61
2022/08/02 03:17:10;;;;;;;0.30;0.30;;;;;;;14.33;75.32;100437.44;5103151;28;20051;-61
2022/08/02 03:19:35;;;;;;;0.20;0.20;;;;;;;14.28;75.26;100434.06;5104246;28;20020;-61
2022/08/02 03:22:01;;;;;;;0.30;0.30;;;;;;;14.25;75.16;100426.31;5104335;28;20020;-61
2022/08/02 03:24:26;;;;;;;0.20;0.20;;;;;;;14.19;74.99;100434.28;5104138;28;20031;-61
2022/08/02 03:26:52;;;;;;;0.20;0.20;;;;;;;14.23;75.48;100433.34;5104053;28;20081;-61
2022/08/02 03:29:17;;;;;;;0.20;0.20;;;;;;;14.35;76.03;100426.94;5104361;28;20040;-61
2022/08/02 03:31:45;;;;;;;0.32;0.32;;;;;;;14.54;76.33;100429.09;5104083;28;20036;-61
2022/08/02 03:34:11;;;;;;;0.30;0.30;;;;;;;14.83;76.98;100414.50;5104042;28;20020;-61
2022/08/02 03:36:37;;;;;;;0.20;0.20;;;;;;;15.15;77.26;100422.38;5103863;28;20052;-61
2022/08/02 03:39:03;;;;;;;0.20;0.20;;;;;;;15.52;77.67;100423.09;5104070;28;20032;-61
2022/08/02 03:41:30;;;;;;;0.20;0.20;;;;;;;15.87;78.04;100426.44;5103855;28;20371;-62
2022/08/02 03:43:57;;;;;;;0.20;0.20;;;;;;;16.27;78.21;100421.75;5103848;28;20028;-61
2022/08/02 03:46:24;;;;;;;0.20;0.20;;;;;;;16.73;78.55;100418.50;5103642;28;20026;-62
2022/08/02 03:48:50;;;;;;;0.20;0.20;;;;;;;17.16;78.50;100400.44;5103931;28;20051;-61
2022/08/02 03:51:16;;;;;;;0.20;0.20;;;;;;;17.51;77.85;100405.28;5103666;28;20035;-62
2022/08/02 03:53:42;;;;;;;0.20;0.20;;;;;;;17.79;77.83;100398.13;5103750;28;20024;-61
2022/08/02 03:56:08;;;;;;;0.20;0.20;;;;;;;18.18;77.87;100396.63;5103206;28;20027;-61
2022/08/02 03:58:34;;;;;;;0.20;0.20;;;;;;;18.58;77.77;100402.88;5103768;28;20028;-61
2022/08/02 04:00:59;;;;;;;0.20;0.20;;;;;;;19.06;77.76;100405.22;5103768;28;20109;-62
2022/08/02 04:03:25;;;;;;;0.20;0.20;;;;;;;19.59;77.29;100406.44;5103772;28;20028;-62
2022/08/02 04:05:51;;;;;;;0.20;0.20;;;;;;;19.95;76.06;100413.53;5103448;28;20077;-62
2022/08/02 04:08:17;;;;;;;0.20;0.20;;;;;;;20.16;74.40;100418.75;5103519;28;20020;-62
2022/08/02 04:13:30;;;;;;;0.20;0.20;;;;;;;19.94;68.83;100417.94;5103748;28;20095;-62
2022/08/02 04:16:01;;;;;;;0.20;0.20;;;;;;;19.70;67.16;100422.59;5103259;28;20066;-62
2022/08/02 04:18:31;;;;;;;0.30;0.30;;;;;;;19.73;67.13;100417.19;5103363;28;20027;-62
2022/08/02 04:20:59;;;;;;;0.20;0.20;;;;;;;20.05;66.53;100420.09;5103395;28;20080;-62
2022/08/02 04:23:26;;;;;;;0.20;0.20;;;;;;;20.42;64.13;100419.22;5103618;28;20028;-61
2022/08/02 04:25:53;;;;;;;0.20;0.20;;;;;;;20.87;64.06;100413.47;5103231;28;20447;-62
2022/08/02 04:28:19;;;;;;;7.75;1.85;;;;;;;20.94;61.99;100420.19;5102962;28;20131;-62
2022/08/02 04:30:49;;;;;;;0.30;0.30;;;;;;;20.99;61.81;100423.41;5103275;28;20016;-63
2022/08/02 04:33:15;;;;;;;0.20;0.20;;;;;;;20.96;60.84;100431.50;5103315;28;20055;-60
2022/08/02 04:35:41;;;;;;;0.20;0.20;;;;;;;20.89;59.12;100432.72;5103287;28;20028;-61
2022/08/02 04:38:07;;;;;;;0.20;0.20;;;;;;;20.76;58.94;100430.72;5102934;28;20023;-60
2022/08/02 04:40:33;;;;;;;0.20;0.20;;;;;;;20.60;58.38;100420.09;5103282;28;20030;-60
2022/08/02 04:42:58;;;;;;;0.30;0.30;;;;;;;20.84;58.69;100435.59;5102928;28;20083;-61
2022/08/02 04:45:25;;;;;;;0.20;0.20;;;;;;;21.06;57.96;100431.88;5084748;28;20024;-61
2022/08/02 04:47:51;;;;;;;0.20;0.20;;;;;;;21.11;57.42;100423.69;5103015;28;20073;-61
2022/08/02 04:50:16;;;;;;;0.10;0.10;;;;;;;21.27;56.49;100427.25;5102831;28;20507;-61
2022/08/02 04:52:41;;;;;;;0.10;0.10;;;;;;;21.59;56.31;100436.16;5103033;28;20016;-61
2022/08/02 04:55:07;;;;;;;0.20;0.20;;;;;;;21.75;55.85;100437.03;5102771;28;20024;-61
2022/08/02 05:00:16;;;;;;;0.20;0.20;;;;;;;21.93;54.36;100447.53;5102791;28;20031;-61
2022/08/02 05:02:42;;;;;;;0.20;0.20;;;;;;;21.89;54.13;100443.34;5102868;28;20020;-61
2022/08/02 05:05:07;;;;;;;0.20;0.20;;;;;;;21.83;53.90;100443.69;5102856;28;20020;-61
2022/08/02 05:07:33;;;;;;;0.20;0.20;;;;;;;21.59;53.21;100446.72;5103076;28;20020;-61
2022/08/02 05:09:58;;;;;;;0.20;0.20;;;;;;;21.58;52.68;100455.59;5102975;28;20020;-61
2022/08/02 05:12:24;;;;;;;0.20;0.20;;;;;;;21.70;52.09;100454.91;5084502;28;20035;-61
2022/08/02 05:14:50;;;;;;;0.20;0.20;;;;;;;21.91;51.54;100452.03;5102993;28;20058;-61
2022/08/02 05:17:16;;;;;;;0.20;0.20;;;;;;;22.15;51.55;100451.59;5102624;28;20052;-61
2022/08/02 05:19:41;;;;;;;0.20;0.20;;;;;;;22.14;51.02;100448.09;5102731;28;20031;-61
2022/08/02 05:22:07;;;;;;;0.30;0.30;;;;;;;21.95;51.28;100458.03;5102874;28;20016;-61
2022/08/02 05:24:32;;;;;;;0.17;0.17;;;;;;;21.89;51.62;100452.13;5102802;28;20122;-61
2022/08/02 05:26:58;;;;;;;0.20;0.20;;;;;;;22.14;52.43;100456.03;5102482;28;20363;-62
2022/08/02 05:29:23;;;;;;;0.20;0.20;;;;;;;22.88;52.30;100458.00;5102713;28;20027;-61
2022/08/02 05:31:49;;;;;;;0.20;0.20;;;;;;;23.46;50.00;100454.59;5102773;28;20021;-62
2022/08/02 05:34:14;;;;;;;0.55;0.55;;;;;;;24.04;49.79;100452.78;5102716;28;20015;-62
2022/08/02 05:36:39;;;;;;;0.10;0.10;;;;;;;24.62;47.57;100453.41;5102634;28;20040;-62
2022/08/02 05:39:05;;;;;;;0.10;0.10;;;;;;;25.18;47.67;100463.84;5102768;28;20028;-62
2022/08/02 05:41:30;;;;;;;0.10;0.10;;;;;;;25.31;45.56;100456.75;5104702;28;20112;-62
2022/08/02 05:43:55;;;;;;;0.17;0.17;;;;;;;25.30;45.13;100465.69;5106232;28;20016;-62
2022/08/02 05:46:21;;;;;;;1.27;1.27;;;;;;;25.30;44.19;100463.03;5106097;28;20028;-62
2022/08/02 05:48:46;;;;;;;0.10;0.10;;;;;;;25.04;44.49;100456.84;5106180;28;20016;-62
2022/08/02 05:51:21;;;;;;;7.65;1.48;;;;;;;24.67;44.34;100463.69;5105995;28;20031;-62
2022/08/02 05:54:07;;;;;;;0.20;0.20;;;;;;;24.33;44.52;100463.31;5106102;28;20028;-62
2022/08/02 05:56:45;;;;;;;0.20;0.20;;;;;;;23.83;44.88;100469.97;5105602;28;20028;-62
2022/08/02 05:59:33;;;;;;;0.10;0.10;;;;;;;23.32;44.80;100465.16;5106001;28;20023;-62
2022/08/02 06:02:02;;;;;;;0.10;0.10;;;;;;;23.07;45.86;100477.25;5105991;28;20035;-61
2022/08/02 06:04:52;;;;;;;0.32;0.32;;;;;;;22.60;45.80;100469.38;5106164;28;20054;-62
2022/08/02 06:07:19;;;;;;;0.20;0.20;;;;;;;22.10;47.35;100466.88;5105975;28;20012;-61
2022/08/02 06:09:48;;;;;;;0.10;0.10;;;;;;;21.85;47.94;100463.81;5105850;28;20111;-62
2022/08/02 06:12:15;;;;;;;0.20;0.20;;;;;;;21.60;48.37;100465.13;5105520;28;20028;-62
2022/08/02 06:14:41;;;;;;;0.10;0.10;;;;;;;21.40;48.94;100466.19;5105790;28;20483;-65
2022/08/02 06:17:08;;;;;;;0.20;0.20;;;;;;;21.27;49.46;100471.25;5105406;28;20040;-60
2022/08/02 06:19:37;;;;;;;0.15;0.15;;;;;;;21.25;50.17;100471.34;5105491;28;20066;-60
2022/08/02 06:22:13;;;;;;;0.10;0.10;;;;;;;21.41;50.18;100473.16;5105683;28;20040;-60
2022/08/02 06:24:44;;;;;;;0.20;0.20;;;;;;;21.46;50.86;100471.16;5105491;28;20028;-60
2022/08/02 06:27:14;;;;;;;0.20;0.20;;;;;;;21.67;50.28;100470.94;5105364;28;20016;-59
2022/08/02 06:29:41;;;;;;;0.20;0.20;;;;;;;21.69;49.68;100473.47;5105471;28;20131;-60
2022/08/02 06:32:07;;;;;;;0.10;0.10;;;;;;;21.62;49.90;100470.31;5105225;28;20048;-60
2022/08/02 06:34:37;;;;;;;0.20;0.20;;;;;;;21.53;49.98;100472.50;5105335;28;20091;-60
2022/08/02 06:37:11;;;;;;;3.20;1.85;;;;;;;21.55;50.48;100481.22;5105294;28;20088;-62
2022/08/02 06:40:09;;;;;;;0.20;0.20;;;;;;;21.59;50.17;100484.56;5105024;28;20027;-59
2022/08/02 06:42:48;;;;;;;0.10;0.10;;;;;;;21.72;50.46;100484.75;5105026;28;20028;-64
2022/08/02 06:45:15;;;;;;;0.10;0.10;;;;;;;22.08;49.85;100487.28;5105088;28;20028;-63
2022/08/02 06:47:40;;;;;;;0.20;0.20;;;;;;;22.70;49.70;100493.50;5105104;28;20079;-63
2022/08/02 06:50:06;;;;;;;0.38;0.38;;;;;;;23.33;48.66;100490.69;5104725;28;20055;-62
2022/08/02 06:52:32;;;;;;;0.20;0.20;;;;;;;23.47;47.16;100480.13;5104678;28;20024;-62
2022/08/02 06:55:00;;;;;;;0.20;0.20;;;;;;;23.35;46.43;100491.44;5104574;28;20024;-63
2022/08/02 06:57:26;;;;;;;0.20;0.20;;;;;;;23.02;45.65;100496.88;5104475;28;20020;-63
2022/08/02 06:59:52;;;;;;;0.20;0.20;;;;;;;22.74;45.78;100490.59;5104559;28;20020;-64
2022/08/02 07:02:17;;;;;;;0.20;0.20;;;;;;;22.41;46.16;100489.78;5104844;28;20045;-64
2022/08/02 07:04:43;;;;;;;0.65;0.65;;;;;;;22.03;46.30;100496.28;5104582;28;20032;-63
2022/08/02 07:07:08;;;;;;;0.10;0.10;;;;;;;21.82;46.93;100493.03;5104836;28;20028;-63
2022/08/02 07:09:33;;;;;;;0.20;0.20;;;;;;;21.61;46.56;100497.69;5104863;28;20108;-64
2022/08/02 07:11:59;;;;;;;0.20;0.20;;;;;;;21.54;47.61;100495.38;5104620;28;20472;-64
2022/08/02 07:14:24;;;;;;;0.13;0.13;;;;;;;21.58;47.47;100496.03;5104835;28;20016;-63
2022/08/02 07:16:49;;;;;;;0.20;0.20;;;;;;;21.79;47.17;100499.34;5104275;28;20051;-63
2022/08/02 07:19:15;;;;;;;0.20;0.20;;;;;;;22.21;46.72;100490.06;5104601;28;20020;-63
2022/08/02 07:21:40;;;;;;;0.20;0.20;;;;;;;22.44;45.88;100498.47;5104663;28;20035;-64
2022/08/02 07:24:05;;;;;;;0.20;0.20;;;;;;;22.47;45.42;100495.66;5104688;28;20024;-63
2022/08/02 07:26:31;;;;;;;0.20;0.20;;;;;;;22.36;44.96;100493.63;5104153;28;20048;-62
2022/08/02 07:28:57;;;;;;;0.20;0.20;;;;;;;22.15;45.04;100494.78;5104538;28;20032;-63
2022/08/02 07:31:23;;;;;;;0.20;0.20;;;;;;;21.89;45.58;100493.56;5104131;28;20137;-63
2022/08/02 07:33:48;;;;;;;0.20;0.20;;;;;;;21.51;46.24;100503.44;5104464;28;20028;-63
2022/08/02 07:36:13;;;;;;;0.20;0.20;;;;;;;21.40;46.45;100496.09;5103990;28;20028;-63
2022/08/02 07:38:39;;;;;;;0.20;0.20;;;;;;;21.21;46.91;100509.41;5104183;28;20032;-64
2022/08/02 07:41:04;;;;;;;0.20;0.20;;;;;;;21.01;47.72;100500.72;5104129;28;20039;-64
2022/08/02 07:43:30;;;;;;;0.20;0.20;;;;;;;20.84;48.24;100504.19;5104068;28;20070;-63
2022/08/02 07:45:55;;;;;;;0.20;0.20;;;;;;;20.69;48.96;100508.44;5103971;28;20429;-63
2022/08/02 07:48:20;;;;;;;0.20;0.20;;;;;;;20.54;49.35;100513.53;5104121;28;20076;-64
2022/08/02 07:50:47;;;;;;;0.52;0.52;;;;;;;20.40;50.13;100510.75;5085627;28;20024;-64
2022/08/02 07:53:12;;;;;;;0.20;0.20;;;;;;;20.62;50.01;100514.97;5104079;28;20024;-64
2022/08/02 07:55:37;;;;;;;0.20;0.20;;;;;;;21.36;49.04;100522.75;5103702;28;20480;-64
2022/08/02 07:58:03;;;;;;;0.20;0.20;;;;;;;22.22;48.34;100513.75;5103645;28;20060;-64
2022/08/02 08:00:29;;;;;;;1.00;1.00;;;;;;;23.32;45.36;100513.69;5103845;28;20032;-64
2022/08/02 08:02:54;;;;;;;0.10;0.10;;;;;;;24.58;44.26;100523.56;5103430;28;20023;-64
2022/08/02 08:05:20;;;;;;;0.20;0.20;;;;;;;25.65;43.39;100527.09;5103627;28;20028;-64
2022/08/02 08:07:45;;;;;;;0.20;0.20;;;;;;;25.83;39.65;100515.16;5103883;28;20045;-64
2022/08/02 08:10:10;;;;;;;0.10;0.10;;;;;;;25.72;39.39;100526.56;5085264;28;20019;-64
2022/08/02 08:12:36;;;;;;;0.10;0.10;;;;;;;25.47;39.79;100525.59;5103594;28;20024;-65
2022/08/02 08:15:02;;;;;;;0.10;0.10;;;;;;;25.17;39.50;100528.56;5103560;28;20031;-64
2022/08/02 08:17:27;;;;;;;0.22;0.22;;;;;;;24.97;38.82;100531.63;5103649;28;20056;-64
2022/08/02 08:19:53;;;;;;;0.93;0.93;;;;;;;24.81;39.78;100525.66;5103548;28;20047;-64
2022/08/02 08:22:19;;;;;;;0.10;0.10;;;;;;;24.31;40.28;100532.38;5103746;28;20035;-64
2022/08/02 08:24:46;;;;;;;0.30;0.30;;;;;;;23.93;40.28;100531.19;5103456;28;20031;-63
2022/08/02 08:27:13;;;;;;;0.17;0.17;;;;;;;23.77;40.86;100529.50;5103386;28;20016;-63
2022/08/02 08:29:40;;;;;;;0.10;0.10;;;;;;;23.93;41.12;100520.56;5103586;28;20396;-64
2022/08/02 08:32:05;;;;;;;0.17;0.17;;;;;;;24.08;39.64;100518.75;5103424;28;20473;-64
2022/08/02 08:34:31;;;;;;;0.10;0.10;;;;;;;24.36;40.26;100516.16;5103520;28;20413;-63
2022/08/02 08:36:56;;;;;;;0.20;0.20;;;;;;;24.80;39.92;100529.22;5103299;28;20044;-63
2022/08/02 08:39:22;;;;;;;0.20;0.20;;;;;;;25.09;39.85;100529.09;5103325;28;20028;-64
2022/08/02 08:41:47;;;;;;;0.10;0.10;;;;;;;25.37;38.80;100536.03;5103067;28;20027;-63
2022/08/02 08:44:13;;;;;;;0.20;0.20;;;;;;;25.42;39.04;100530.38;5103493;28;20024;-63
2022/08/02 08:46:42;;;;;;;1.95;1.17;;;;;;;25.90;38.62;100528.00;5103369;28;20016;-63
2022/08/02 08:49:39;;;;;;;0.32;0.32;;;;;;;26.60;36.03;100520.31;5103404;28;20020;-63
2022/08/02 08:52:05;;;;;;;0.10;0.10;;;;;;;26.84;36.79;100524.75;5102145;28;20118;-63
2022/08/02 08:54:32;;;;;;;0.40;0.40;;;;;;;26.50;36.44;100516.66;5103143;28;20047;-63
2022/08/02 08:56:58;;;;;;;0.10;0.10;;;;;;;26.11;36.85;100518.50;5102917;28;20032;-63
2022/08/02 08:59:24;;;;;;;0.20;0.20;;;;;;;26.09;37.39;100525.72;5103284;28;20118;-63
2022/08/02 09:01:50;;;;;;;0.10;0.10;;;;;;;26.23;37.06;100522.03;5103053;28;20023;-63
2022/08/02 09:04:16;;;;;;;0.10;0.10;;;;;;;26.33;37.41;100518.75;5103354;28;20048;-63
2022/08/02 09:06:41;;;;;;;0.10;0.10;;;;;;;26.22;36.38;100525.69;5103013;28;20020;-63
2022/08/02 09:09:07;;;;;;;0.10;0.10;;;;;;;25.65;36.72;100533.28;5103231;28;20028;-63
2022/08/02 09:11:33;;;;;;;0.10;0.10;;;;;;;25.28;37.09;100526.03;5102980;28;21520;-63
2022/08/02 09:14:00;;;;;;;0.10;0.10;;;;;;;25.03;38.09;100540.16;5103084;28;20051;-63
2022/08/02 09:16:30;;;;;;;0.10;0.10;;;;;;;25.13;38.48;100541.22;5105003;28;20093;-63
2022/08/02 09:18:56;;;;;;;0.40;0.40;;;;;;;25.27;38.92;100534.97;5106929;28;20038;-63
2022/08/02 09:21:22;;;;;;;0.13;0.13;;;;;;;25.10;39.53;100534.31;5106832;28;20099;-63
2022/08/02 09:23:49;;;;;;;0.17;0.17;;;;;;;24.86;40.03;100536.78;5106927;28;20051;-63
2022/08/02 09:26:15;;;;;;;0.10;0.10;;;;;;;24.50;40.51;100534.69;5106432;28;20083;-63
2022/08/02 09:28:43;;;;;;;0.10;0.10;;;;;;;24.26;41.04;100530.03;5106711;28;20088;-63
2022/08/02 09:31:14;;;;;;;0.25;0.25;;;;;;;24.13;41.11;100532.59;5106723;28;20024;-63
2022/08/02 09:33:42;;;;;;;0.10;0.10;;;;;;;23.85;41.36;100528.19;5106691;28;20020;-63
2022/08/02 09:36:12;;;;;;;0.10;0.10;;;;;;;23.89;41.90;100527.03;5106478;28;20087;-63
2022/08/02 09:38:40;;;;;;;0.20;0.20;;;;;;;23.96;41.54;100527.50;5106600;28;20020;-63
2022/08/02 09:41:19;;;;;;;0.10;0.10;;;;;;;23.85;41.75;100536.97;5106405;28;20460;-63
2022/08/02 09:43:44;;;;;;;0.20;0.20;;;;;;;23.61;42.34;100531.41;5106489;28;20024;-63
2022/08/02 09:46:21;;;;;;;0.40;0.40;;;;;;;23.36;42.17;100546.13;5106362;28;20099;-63
2022/08/02 09:48:50;;;;;;;0.68;0.68;;;;;;;23.10;42.94;100540.59;5106426;28;20013;-63
2022/08/02 09:51:39;;;;;;;0.10;0.10;;;;;;;22.83;43.84;100542.13;5106291;28;20039;-63
2022/08/02 09:54:10;;;;;;;0.20;0.20;;;;;;;22.84;43.89;100553.56;5093446;28;20058;-63
2022/08/02 09:56:47;;;;;;;0.20;0.20;;;;;;;22.93;44.33;100547.75;5105993;28;20102;-63
2022/08/02 09:59:13;;;;;;;0.20;0.20;;;;;;;23.14;43.95;100544.75;5106313;28;20024;-62
2022/08/02 10:01:40;;;;;;;0.20;0.20;;;;;;;23.24;43.76;100543.25;5105971;28;20031;-62
2022/08/02 10:04:09;;;;;;;0.10;0.10;;;;;;;23.18;43.84;100542.78;5106148;28;20020;-62
2022/08/02 10:06:36;;;;;;;0.20;0.20;;;;;;;23.20;43.84;100535.59;5106013;28;20024;-63
2022/08/02 10:09:03;;;;;;;0.43;0.43;;;;;;;23.15;44.15;100530.56;5106009;28;20016;-63
2022/08/02 10:11:28;;;;;;;0.20;0.20;;;;;;;23.70;43.67;100541.44;5105490;28;20160;-63
2022/08/02 10:13:54;;;;;;;0.13;0.13;;;;;;;24.03;42.46;100526.16;5105804;28;20475;-63
2022/08/02 10:16:24;;;;;;;0.30;0.30;;;;;;;24.39;42.06;100527.41;5105462;28;20569;-63
2022/08/02 10:18:53;;;;;;;0.30;0.30;;;;;;;25.10;42.19;100523.69;5105888;28;20032;-63
2022/08/02 10:21:43;;;;;;;1.65;1.55;;;;;;;25.58;40.63;100539.94;5105738;28;20040;-63
2022/08/02 10:24:15;;;;;;;0.20;0.20;;;;;;;25.63;40.57;100532.53;5105769;28;20020;-63
2022/08/02 10:26:45;;;;;;;0.10;0.10;;;;;;;25.66;40.46;100536.75;5104778;28;20028;-63
2022/08/02 10:29:15;;;;;;;0.10;0.10;;;;;;;25.62;40.41;100536.97;5105618;28;20089;-63
2022/08/02 10:31:43;;;;;;;0.10;0.10;;;;;;;25.55;40.09;100540.16;5105526;28;20031;-63
2022/08/02 10:34:15;;;;;;;0.10;0.10;;;;;;;25.66;40.02;100537.63;5105502;28;20024;-63
2022/08/02 10:36:41;;;;;;;0.10;0.10;;;;;;;25.62;38.74;100538.81;5105258;28;20032;-63
2022/08/02 10:39:07;;;;;;;0.10;0.10;;;;;;;25.49;39.11;100530.81;5105409;28;20424;-63
2022/08/02 10:41:48;;;;;;;0.10;0.10;;;;;;;25.38;39.75;100523.59;5105062;28;20032;-63
2022/08/02 10:44:29;;;;;;;0.10;0.10;;;;;;;25.30;39.01;100533.91;5105205;28;20471;-63
2022/08/02 10:47:12;;;;;;;0.50;0.50;;;;;;;24.94;39.93;100523.00;5104994;28;20020;-63
2022/08/02 10:49:54;;;;;;;0.30;0.30;;;;;;;24.56;40.17;100535.22;5105196;28;20031;-63
2022/08/02 10:52:26;;;;;;;0.10;0.10;;;;;;;24.09;40.81;100532.88;5105152;28;20020;-63
2022/08/02 10:55:11;;;;;;;0.20;0.20;;;;;;;23.69;41.34;100537.06;5105071;28;20341;-63
2022/08/02 10:57:37;;;;;;;0.10;0.10;;;;;;;23.25;41.63;100539.69;5104659;28;20065;-63
2022/08/02 11:00:08;;;;;;;0.20;0.20;;;;;;;22.84;42.20;100537.69;5105008;28;20028;-63
2022/08/02 11:02:45;;;;;;;0.20;0.20;;;;;;;22.54;42.37;100539.31;5104614;28;20020;-63
2022/08/02 11:05:25;;;;;;;0.20;0.20;;;;;;;22.21;42.43;100541.16;5105020;28;20396;-63
2022/08/02 11:07:51;;;;;;;0.13;0.13;;;;;;;22.02;42.92;100543.97;5104951;28;20031;-64
2022/08/02 11:10:25;;;;;;;0.47;0.47;;;;;;;21.89;43.45;100547.28;5104715;28;21484;-64
2022/08/02 11:13:13;;;;;;;0.22;0.22;;;;;;;21.76;43.51;100548.81;5104614;28;20476;-64
2022/08/02 11:15:56;;;;;;;0.20;0.20;;;;;;;21.63;43.38;100546.00;5104514;28;20035;-64
2022/08/02 11:18:26;;;;;;;0.10;0.10;;;;;;;21.42;43.31;100549.66;5104616;28;20047;-64
2022/08/02 11:21:30;;;;;;;0.10;0.10;;;;;;;21.30;43.87;100540.63;5104594;28;20027;-63
2022/08/02 11:24:15;;;;;;;0.20;0.20;;;;;;;21.33;44.01;100536.09;5104542;28;20524;-64
2022/08/02 11:26:42;;;;;;;0.82;0.82;;;;;;;21.22;44.20;100529.59;5086050;28;20112;-63
2022/08/02 11:29:07;;;;;;;0.20;0.20;;;;;;;21.14;43.45;100529.13;5104404;28;20020;-63
2022/08/02 11:31:41;;;;;;;0.20;0.20;;;;;;;21.02;43.32;100522.69;5104328;28;20031;-64
2022/08/02 11:34:07;;;;;;;0.20;0.20;;;;;;;21.07;43.62;100520.66;5104349;28;20024;-64
2022/08/02 11:36:46;;;;;;;0.20;0.20;;;;;;;20.79;43.91;100514.97;5104127;28;20020;-64
2022/08/02 11:39:15;;;;;;;0.10;0.10;;;;;;;20.57;44.34;100523.09;5103224;28;20020;-64